createdAt,value
2023-05-09T00:01:59.124Z,18.45
2023-05-09T00:06:59.115Z,18.45
2023-05-09T00:11:59.128Z,18.45
2023-05-09T00:16:59.119Z,18.41
2023-05-09T00:21:59.131Z,18.31
2023-05-09T00:26:59.133Z,18.36
2023-05-09T00:31:59.124Z,18.41
2023-05-09T00:36:59.136Z,18.44
2023-05-09T00:41:59.127Z,18.4
2023-05-09T00:46:59.140Z,18.41
2023-05-09T00:51:59.141Z,18.43
2023-05-09T00:56:59.144Z,18.37
2023-05-09T01:01:59.146Z,18.19
2023-05-09T01:06:59.136Z,18.24
2023-05-09T01:11:59.149Z,18.08
2023-05-09T01:16:59.139Z,17.95
2023-05-09T01:21:59.152Z,17.77
2023-05-09T01:26:59.153Z,17.62
2023-05-09T01:31:59.144Z,17.57
2023-05-09T01:36:59.156Z,17.31
2023-05-09T01:41:59.148Z,17.12
2023-05-09T01:46:59.160Z,16.92
2023-05-09T01:51:59.161Z,16.78
2023-05-09T01:56:59.164Z,16.68
2023-05-09T02:01:59.165Z,16.71
2023-05-09T02:06:59.156Z,16.73
2023-05-09T02:11:59.167Z,16.78
2023-05-09T02:16:59.159Z,16.92
2023-05-09T02:21:59.171Z,16.79
2023-05-09T02:26:59.172Z,16.93
2023-05-09T02:31:59.163Z,17.07
2023-05-09T02:36:59.175Z,17.17
2023-05-09T02:41:59.167Z,17.18
2023-05-09T02:46:59.179Z,17.14
2023-05-09T02:51:59.170Z,17.08
2023-05-09T02:56:59.183Z,17.03
2023-05-09T03:01:59.223Z,17.01
2023-05-09T03:06:59.175Z,17.06
2023-05-09T03:11:59.186Z,17.06
2023-05-09T03:16:59.178Z,17
2023-05-09T03:21:59.191Z,17.04
2023-05-09T03:26:59.191Z,17.03
2023-05-09T03:31:59.194Z,17.04
2023-05-09T03:36:59.196Z,16.99
2023-05-09T03:41:59.186Z,17.02
2023-05-09T03:46:59.199Z,16.98
2023-05-09T03:51:59.189Z,16.96
2023-05-09T03:56:59.202Z,16.87
2023-05-09T04:01:59.202Z,16.84
2023-05-09T04:06:59.194Z,16.79
2023-05-09T04:11:59.206Z,16.87
2023-05-09T04:16:59.196Z,16.94
2023-05-09T04:21:59.210Z,17.06
2023-05-09T04:26:59.210Z,17.15
2023-05-09T04:31:59.213Z,17.19
2023-05-09T04:36:59.213Z,17.34
2023-05-09T04:41:59.205Z,17.44
2023-05-09T04:46:59.217Z,17.49
2023-05-09T04:51:59.208Z,17.58
2023-05-09T04:56:59.221Z,17.7
2023-05-09T05:01:59.222Z,17.86
2023-05-09T05:06:59.212Z,17.87
2023-05-09T05:11:59.225Z,17.84
2023-05-09T05:16:59.216Z,18.04
2023-05-09T05:21:59.229Z,18.12
2023-05-09T05:26:59.220Z,18.12
2023-05-09T05:31:59.232Z,18.26
2023-05-09T05:36:59.233Z,18.02
2023-05-09T05:41:59.225Z,18.14
2023-05-09T05:46:59.236Z,18.12
2023-05-09T05:51:59.228Z,18.14
2023-05-09T05:57:15.718Z,18.14
2023-05-09T06:01:59.241Z,17.95
2023-05-09T06:06:59.244Z,17.95
2023-05-09T06:11:59.247Z,17.79
2023-05-09T06:16:59.236Z,17.81
2023-05-09T06:21:59.249Z,17.91
2023-05-09T06:26:59.240Z,18.16
2023-05-09T06:31:59.252Z,18.27
2023-05-09T06:36:59.253Z,18.33
2023-05-09T06:41:59.245Z,18.49
2023-05-09T06:46:59.258Z,18.64
2023-05-09T06:51:59.248Z,18.78
2023-05-09T06:56:59.261Z,18.89
2023-05-09T07:01:59.262Z,19.17
2023-05-09T07:06:59.264Z,19.33
2023-05-09T07:11:59.266Z,19.6
2023-05-09T07:16:59.257Z,19.68
2023-05-09T07:21:59.268Z,19.79
2023-05-09T07:26:59.260Z,19.81
2023-05-09T07:31:59.273Z,19.83
2023-05-09T07:36:59.275Z,20.16
2023-05-09T07:41:59.265Z,20.45
2023-05-09T07:46:59.279Z,20.45
2023-05-09T07:51:59.269Z,20.75
2023-05-09T07:56:59.282Z,21.01
2023-05-09T08:01:59.283Z,21.35
2023-05-09T08:06:59.286Z,21.45
2023-05-09T08:11:59.311Z,21.69
2023-05-09T08:16:59.279Z,28.3
2023-05-09T08:21:59.295Z,32.58
2023-05-09T08:26:59.284Z,34.63
2023-05-09T08:31:59.297Z,34.66
2023-05-09T08:36:59.299Z,36
2023-05-09T08:41:59.303Z,35.15
2023-05-09T08:46:59.307Z,35.88
2023-05-09T08:51:59.297Z,36.45
2023-05-09T08:56:59.311Z,36.16
2023-05-09T09:01:59.303Z,36.11
2023-05-09T09:06:59.317Z,36.02
2023-05-09T09:11:59.319Z,36.14
2023-05-09T09:16:59.311Z,35.62
2023-05-09T09:21:59.326Z,35.34
2023-05-09T09:26:59.317Z,34.66
2023-05-09T09:31:59.331Z,34.89
2023-05-09T09:36:59.334Z,34.29
2023-05-09T09:41:59.337Z,34.18
2023-05-09T09:46:59.338Z,34.32
2023-05-09T09:51:59.331Z,34.56
2023-05-09T09:56:59.345Z,33.99
2023-05-09T10:01:59.337Z,34.13
2023-05-09T10:06:59.351Z,34.29
2023-05-09T10:11:59.352Z,35.28
2023-05-09T10:16:59.344Z,35.3
2023-05-09T10:21:59.360Z,35.04
2023-05-09T10:26:59.351Z,34.7
2023-05-09T10:31:59.365Z,34.93
2023-05-09T10:36:59.357Z,35.66
2023-05-09T10:41:59.371Z,34.45
2023-05-09T10:46:59.372Z,34.91
2023-05-09T10:51:59.365Z,34.33
2023-05-09T10:56:59.404Z,34.09
2023-05-09T11:01:59.371Z,33.75
2023-05-09T11:06:59.386Z,34.57
2023-05-09T11:11:59.387Z,34.73
2023-05-09T11:16:59.391Z,35.66
2023-05-09T11:21:59.394Z,35.59
2023-05-09T11:26:59.385Z,35.81
2023-05-09T11:31:59.398Z,35.47
2023-05-09T11:36:59.391Z,35.47
2023-05-09T11:41:59.404Z,36.02
2023-05-09T11:46:59.407Z,36.28
2023-05-09T11:51:59.400Z,35.82
2023-05-09T11:56:59.415Z,35.68
2023-05-09T12:01:59.406Z,36.2
2023-05-09T12:06:59.418Z,35.91
2023-05-09T12:11:59.422Z,35.82
2023-05-09T12:16:59.424Z,35.74
2023-05-09T12:21:59.428Z,35.72
2023-05-09T12:26:59.420Z,35.59
2023-05-09T12:31:59.433Z,35.59
2023-05-09T12:36:59.426Z,35.08
2023-05-09T12:41:59.439Z,35.23
2023-05-09T12:46:59.442Z,35.32
2023-05-09T12:51:59.435Z,35.34
2023-05-09T12:56:59.450Z,35.77
2023-05-09T13:01:59.441Z,35.28
2023-05-09T13:06:59.453Z,34.93
2023-05-09T13:11:59.456Z,35.21
2023-05-09T13:16:59.459Z,35.16
2023-05-09T13:21:59.512Z,36.43
2023-05-09T13:26:59.455Z,36.41
2023-05-09T13:31:59.512Z,36.38
2023-05-09T13:36:59.461Z,33.88
2023-05-09T13:42:15.951Z,33.3
2023-05-09T13:46:59.477Z,33.02
2023-05-09T13:51:59.479Z,33.4
2023-05-09T13:56:59.484Z,32.68
2023-05-09T14:01:59.475Z,31.95
2023-05-09T14:06:59.488Z,31.62
2023-05-09T14:11:59.481Z,30.74
2023-05-09T14:16:59.493Z,32.53
2023-05-09T14:21:59.496Z,32.47
2023-05-09T14:26:59.489Z,31.62
2023-05-09T14:31:59.504Z,31.19
2023-05-09T14:36:59.494Z,30.54
2023-05-09T14:41:59.507Z,30.51
2023-05-09T14:46:59.510Z,29.62
2023-05-09T14:51:59.513Z,29.78
2023-05-09T14:56:59.517Z,30.56
2023-05-09T15:01:59.508Z,30.72
2023-05-09T15:06:59.521Z,29.98
2023-05-09T15:11:59.513Z,29.6
2023-05-09T15:16:59.526Z,29.62
2023-05-09T15:21:59.529Z,30.25
2023-05-09T15:26:59.520Z,30.05
2023-05-09T15:31:59.534Z,29.92
2023-05-09T15:36:59.527Z,28.9
2023-05-09T15:41:59.539Z,28.34
2023-05-09T15:46:59.542Z,28.55
2023-05-09T15:51:59.544Z,29.26
2023-05-09T15:56:59.549Z,29.44
2023-05-09T16:01:59.540Z,28.91
2023-05-09T16:06:59.552Z,28.15
2023-05-09T16:11:59.545Z,27.57
2023-05-09T16:16:59.557Z,27.47
2023-05-09T16:21:59.560Z,27.54
2023-05-09T16:26:59.612Z,28
2023-05-09T16:31:59.567Z,27.88
2023-05-09T16:36:59.557Z,27.88
2023-05-09T16:41:59.570Z,27.71
2023-05-09T16:46:59.562Z,27.36
2023-05-09T16:51:59.575Z,27.1
2023-05-09T16:56:59.619Z,26.79
2023-05-09T17:01:59.570Z,26.54
2023-05-09T17:06:59.584Z,26.18
2023-05-09T17:11:59.575Z,26.02
2023-05-09T17:16:59.587Z,25.96
2023-05-09T17:21:59.589Z,25.79
2023-05-09T17:26:59.592Z,25.59
2023-05-09T17:31:59.596Z,25.54
2023-05-09T17:36:59.587Z,25.36
2023-05-09T17:41:59.599Z,25.21
2023-05-09T17:46:59.591Z,25.11
2023-05-09T17:51:59.604Z,25.14
2023-05-09T17:56:59.606Z,24.93
2023-05-09T18:01:59.598Z,24.89
2023-05-09T18:06:59.613Z,24.69
2023-05-09T18:11:59.602Z,24.55
2023-05-09T18:16:59.615Z,24.34
2023-05-09T18:21:59.617Z,24.25
2023-05-09T18:26:59.620Z,24.14
2023-05-09T18:31:59.624Z,24.05
2023-05-09T18:36:59.614Z,24.02
2023-05-09T18:41:59.627Z,23.93
2023-05-09T18:46:59.619Z,23.96
2023-05-09T18:51:59.655Z,23.92
2023-05-09T18:56:59.633Z,23.92
2023-05-09T19:01:59.626Z,23.6
2023-05-09T19:06:59.640Z,22.68
2023-05-09T19:11:59.640Z,21.54
2023-05-09T19:16:59.642Z,20.67
2023-05-09T19:21:59.634Z,20.42
2023-05-09T19:26:59.646Z,20.15
2023-05-09T19:31:59.648Z,19.77
2023-05-09T19:36:59.639Z,19.65
2023-05-09T19:41:59.653Z,19.46
2023-05-09T19:46:59.643Z,19.27
2023-05-09T19:51:59.655Z,18.93
2023-05-09T19:56:59.657Z,18.85
2023-05-09T20:01:59.659Z,18.99
2023-05-09T20:06:59.660Z,18.84
2023-05-09T20:11:59.652Z,18.73
2023-05-09T20:16:59.664Z,18.65
2023-05-09T20:21:59.656Z,18.62
2023-05-09T20:26:59.667Z,18.79
2023-05-09T20:31:59.669Z,18.71
2023-05-09T20:36:59.661Z,18.65
2023-05-09T20:41:59.675Z,18.71
2023-05-09T20:46:59.664Z,18.73
2023-05-09T20:51:59.676Z,18.65
2023-05-09T20:56:59.679Z,18.7
2023-05-09T21:01:59.680Z,18.7
2023-05-09T21:06:59.683Z,18.71
2023-05-09T21:11:59.673Z,18.66
2023-05-09T21:16:59.685Z,18.62
2023-05-09T21:22:16.154Z,18.56
2023-05-09T21:26:59.689Z,18.57
2023-05-09T21:31:59.691Z,18.69
2023-05-09T21:36:59.682Z,18.7
2023-05-09T21:41:59.694Z,18.69
2023-05-09T21:46:59.696Z,18.54
2023-05-09T21:51:59.697Z,18.49
2023-05-09T21:56:59.699Z,18.52
2023-05-09T22:01:59.701Z,18.59
2023-05-09T22:06:59.767Z,18.62
2023-05-09T22:11:59.694Z,18.6
2023-05-09T22:16:59.750Z,18.7
2023-05-09T22:21:59.698Z,18.79
2023-05-09T22:26:59.710Z,18.76
2023-05-09T22:31:59.711Z,18.85
2023-05-09T22:36:59.713Z,18.83
2023-05-09T22:41:59.715Z,18.77
2023-05-09T22:46:59.707Z,18.69
2023-05-09T22:51:59.718Z,18.62
2023-05-09T22:56:59.710Z,18.52
2023-05-09T23:01:59.722Z,18.62
2023-05-09T23:06:59.724Z,18.65
2023-05-09T23:11:59.715Z,18.51
2023-05-09T23:16:59.727Z,18.33
2023-05-09T23:21:59.719Z,18.2
2023-05-09T23:26:59.731Z,18.04
2023-05-09T23:31:59.733Z,17.95
2023-05-09T23:36:59.734Z,17.84
2023-05-09T23:41:59.736Z,17.85
2023-05-09T23:46:59.727Z,17.85
2023-05-09T23:51:59.739Z,17.82
2023-05-09T23:56:59.731Z,17.79
